Time;durP1;ratioP1;P1;durP2;ratioP2;P2;SDS_P1;SDS_P2;PMS_P1;PMS_P2;Temp;Humidity;BMP_temperature;BMP_pressure;BME280_temperature;BME280_humidity;BME280_pressure;Samples;Min_cycle;Max_cycle;Signal;HPM_P1;HPM_P2
2019/09/01 07:15:04;;;;;;;4.8;4.2;;;;;;;21.71;65.36816;958.2926;;;;
2019/09/01 07:17:29;;;;;;;5.1;4.1;;;;;;;21.73;65.23047;958.3002;;;;
2019/09/01 07:19:54;;;;;;;4.3;3.9;;;;;;;21.74;65.14746;958.2651;;;;
2019/09/01 07:22:19;;;;;;;5.8;4.1;;;;;;;21.78;64.30371;958.2468;;;;
2019/09/01 07:27:10;;;;;;;4.7;3.9;;;;;;;21.9;63.83691;958.3306;;;;
2019/09/01 07:29:35;;;;;;;5.3;3.6;;;;;;;22.06;63.3877;958.3999;;;;
2019/09/01 07:32:00;;;;;;;4.4;4;;;;;;;22.16;63.87402;958.3539;;;;
2019/09/01 07:34:25;;;;;;;4.7;3.8;;;;;;;22.21;63.14941;958.4067;;;;
2019/09/01 07:36:51;;;;;;;4.5;4;;;;;;;22.23;63.35254;958.4612;;;;
2019/09/01 07:39:16;;;;;;;5.3;4.2;;;;;;;22.3;62.88965;958.4797;;;;
2019/09/01 07:41:41;;;;;;;4.4;3.9;;;;;;;22.39;63.04492;958.5547;;;;
2019/09/01 07:44:07;;;;;;;4.7;4.2;;;;;;;22.42;62.90527;958.5786;;;;
2019/09/01 07:46:32;;;;;;;5;3.9;;;;;;;22.59;62.74121;958.5031;;;;
2019/09/01 07:48:57;;;;;;;4.5;4.1;;;;;;;22.63;62.85254;958.58;;;;
2019/09/01 07:51:22;;;;;;;4.6;3.8;;;;;;;22.5;63.05957;958.5588;;;;
2019/09/01 07:53:47;;;;;;;5.4;4.2;;;;;;;22.56;62.90137;958.522;;;;
2019/09/01 07:56:12;;;;;;;4.4;4;;;;;;;22.56;63.41211;958.5695;;;;
2019/09/01 07:58:37;;;;;;;4.8;3.8;;;;;;;22.72;62.84277;958.6236;;;;
2019/09/01 08:01:03;;;;;;;4.4;3.9;;;;;;;22.8;62.7832;958.6337;;;;
2019/09/01 08:03:28;;;;;;;4.3;3.9;;;;;;;22.86;62.7793;958.652;;;;
2019/09/01 08:05:54;;;;;;;4.5;4.1;;;;;;;23;62.32617;958.7408;;;;
2019/09/01 08:08:19;;;;;;;5.4;4;;;;;;;23;62.13672;958.6277;;;;
2019/09/01 08:10:44;;;;;;;4.8;4;;;;;;;23.02;62.42285;958.687;;;;
2019/09/01 08:13:09;;;;;;;6.1;4;;;;;;;23.14;61.8125;958.699;;;;
2019/09/01 08:15:35;;;;;;;4.6;4.2;;;;;;;23.15;61.9668;958.7668;;;;
2019/09/01 08:18:00;;;;;;;4.6;4.2;;;;;;;23.06;62.3584;958.7674;;;;
2019/09/01 08:20:25;;;;;;;5.3;4.2;;;;;;;23.07;62.5127;958.7745;;;;
2019/09/01 08:22:51;;;;;;;5.5;4.4;;;;;;;23.11;62.10449;958.7615;;;;
2019/09/01 08:25:16;;;;;;;4.2;3.8;;;;;;;23.05;63.48047;958.7346;;;;
2019/09/01 08:27:42;;;;;;;5.8;4.3;;;;;;;23.1;62.7998;958.6891;;;;
2019/09/01 08:30:07;;;;;;;4.7;4.1;;;;;;;23.13;62.14355;958.6636;;;;
2019/09/01 08:32:33;;;;;;;4.9;3.9;;;;;;;23.34;61.81543;958.7179;;;;
2019/09/01 08:34:58;;;;;;;4.9;4.3;;;;;;;23.33;62.14746;958.634;;;;
2019/09/01 08:37:23;;;;;;;6.6;4.6;;;;;;;23.39;62.02441;958.6967;;;;
2019/09/01 08:39:48;;;;;;;4.6;4.2;;;;;;;23.48;61.4082;958.6541;;;;
2019/09/01 08:42:14;;;;;;;4.6;4.2;;;;;;;23.59;61.44727;958.6203;;;;
2019/09/01 08:44:39;;;;;;;4.7;4.2;;;;;;;23.58;60.61621;958.6667;;;;
2019/09/01 08:47:04;;;;;;;5.2;4.2;;;;;;;23.58;60.00098;958.6822;;;;
2019/09/01 08:49:29;;;;;;;4.8;4.3;;;;;;;23.75;59.46484;958.6934;;;;
2019/09/01 08:51:54;;;;;;;4.9;4.2;;;;;;;23.59;60.14258;958.7068;;;;
2019/09/01 08:54:19;;;;;;;4.8;4.1;;;;;;;23.65;59.86719;958.6758;;;;
2019/09/01 08:56:45;;;;;;;7.2;4.2;;;;;;;23.85;60.46289;958.6437;;;;
2019/09/01 08:59:10;;;;;;;4.7;4.3;;;;;;;23.81;59.62793;958.7023;;;;
2019/09/01 09:01:36;;;;;;;4.5;4.1;;;;;;;23.81;60.10156;958.7023;;;;
2019/09/01 09:04:01;;;;;;;6;4.3;;;;;;;23.9;60.28027;958.6951;;;;
2019/09/01 09:06:26;;;;;;;4.8;4.3;;;;;;;23.99;59.61621;958.6185;;;;
2019/09/01 09:08:52;;;;;;;6.7;4.3;;;;;;;24.1;59.97559;958.6713;;;;
2019/09/01 09:11:17;;;;;;;5.1;4.1;;;;;;;24.21;59.08789;958.6506;;;;
2019/09/01 09:13:42;;;;;;;6.2;4.5;;;;;;;24.06;59.70898;958.6721;;;;
2019/09/01 09:16:07;;;;;;;5.9;4.3;;;;;;;24.08;59.42578;958.702;;;;
2019/09/01 09:18:32;;;;;;;5.6;4.4;;;;;;;24.19;60.30664;958.7262;;;;
2019/09/01 09:20:57;;;;;;;4.6;4.2;;;;;;;24.26;59.96191;958.7148;;;;
2019/09/01 09:23:23;;;;;;;4.7;4;;;;;;;24.29;59.4541;958.8095;;;;
2019/09/01 09:25:49;;;;;;;4.9;4.1;;;;;;;24.44;58.9873;958.6825;;;;
2019/09/01 09:28:14;;;;;;;6.3;4.5;;;;;;;24.54;58.49023;958.7162;;;;
2019/09/01 09:30:39;;;;;;;5.5;4.3;;;;;;;24.52;58.0957;958.7553;;;;
2019/09/01 09:33:04;;;;;;;4.8;3.9;;;;;;;24.61;58.5459;958.807;;;;
2019/09/01 09:35:29;;;;;;;5.5;4.6;;;;;;;24.64;59.20313;958.8086;;;;
2019/09/01 09:37:55;;;;;;;6.1;4.2;;;;;;;24.53;58.5;958.8276;;;;
2019/09/01 09:40:20;;;;;;;6.8;4.4;;;;;;;24.35;58.54785;958.8347;;;;
2019/09/01 09:42:45;;;;;;;6.5;4.5;;;;;;;24.27;57.88379;958.9469;;;;
2019/09/01 09:45:10;;;;;;;5.9;4.8;;;;;;;24.19;58.25293;958.9504;;;;
2019/09/01 09:47:35;;;;;;;5.1;4.5;;;;;;;24.17;58.51172;958.9529;;;;
2019/09/01 09:50:00;;;;;;;5.1;4.4;;;;;;;24.09;58.95215;958.9684;;;;
2019/09/01 09:52:26;;;;;;;7;6.1;;;;;;;24.08;59;959.012;;;;
2019/09/01 09:54:51;;;;;;;6.5;4.9;;;;;;;23.91;59.51074;958.9803;;;;
2019/09/01 09:57:16;;;;;;;6;4.6;;;;;;;23.87;59.49316;958.9666;;;;
2019/09/01 09:59:41;;;;;;;5.4;4.7;;;;;;;23.84;59.87012;958.985;;;;
2019/09/01 10:02:06;;;;;;;5.2;4.7;;;;;;;23.7;60.06348;958.9575;;;;
2019/09/01 10:04:32;;;;;;;5.1;4.6;;;;;;;23.67;60.62793;959.0081;;;;
2019/09/01 10:06:57;;;;;;;6.6;4.3;;;;;;;23.66;60.80469;959.0192;;;;
2019/09/01 10:09:23;;;;;;;5.3;4.4;;;;;;;23.64;61.27637;959.0123;;;;
2019/09/01 10:11:48;;;;;;;7.5;4.8;;;;;;;23.69;61.59277;958.9789;;;;
2019/09/01 10:14:14;;;;;;;6.7;4.7;;;;;;;23.8;60.58691;958.9865;;;;
2019/09/01 10:16:39;;;;;;;8.1;7.3;;;;;;;23.75;61.57617;958.9881;;;;
2019/09/01 10:19:04;;;;;;;6.5;5.2;;;;;;;23.72;61.72656;958.921;;;;
2019/09/01 10:21:29;;;;;;;6;4.6;;;;;;;23.79;62.13965;958.9063;;;;
2019/09/01 10:23:54;;;;;;;5.6;4.6;;;;;;;23.91;62.60645;958.8611;;;;
2019/09/01 10:26:20;;;;;;;5.7;4.7;;;;;;;24.08;61.84766;958.8544;;;;
2019/09/01 10:28:45;;;;;;;6.1;4.4;;;;;;;24.18;61.01855;958.8652;;;;
2019/09/01 10:33:34;;;;;;;5.3;4.8;;;;;;;24.06;59.37598;958.832;;;;
2019/09/01 10:36:02;;;;;;;5.4;3.9;;;;;;;24.29;57.80469;958.8729;;;;
2019/09/01 19:38:09;;;;;;;7.1;4.1;;;;;;;21.15;69.37598;960.7745;;;;
